createdAt,value
2023-04-26T00:00:48.136Z,584.00
2023-04-26T00:01:48.151Z,584.00
2023-04-26T00:02:48.325Z,583.00
2023-04-26T00:03:48.374Z,586.00
2023-04-26T00:04:48.419Z,584.00
2023-04-26T00:05:48.456Z,585.00
2023-04-26T00:06:48.398Z,583.00
2023-04-26T00:07:48.423Z,577.00
2023-04-26T00:08:48.491Z,578.00
2023-04-26T00:09:48.529Z,575.00
2023-04-26T00:10:48.573Z,576.00
2023-04-26T00:11:48.599Z,579.00
2023-04-26T00:12:48.668Z,578.00
2023-04-26T00:13:48.706Z,576.00
2023-04-26T00:14:48.768Z,576.00
2023-04-26T00:15:48.790Z,577.00
2023-04-26T00:16:48.858Z,578.00
2023-04-26T00:17:48.907Z,575.00
2023-04-26T00:18:48.947Z,576.00
2023-04-26T00:19:49.041Z,576.00
2023-04-26T00:20:49.035Z,576.00
2023-04-26T00:21:49.100Z,574.00
2023-04-26T00:22:49.130Z,574.00
2023-04-26T00:23:49.178Z,573.00
2023-04-26T00:24:49.255Z,575.00
2023-04-26T00:25:49.276Z,576.00
2023-04-26T00:26:49.340Z,573.00
2023-04-26T00:27:49.361Z,572.00
2023-04-26T00:28:49.502Z,573.00
2023-04-26T00:29:49.467Z,572.00
2023-04-26T00:30:49.520Z,575.00
2023-04-26T00:31:49.618Z,575.00
2023-04-26T00:32:49.646Z,574.00
2023-04-26T00:33:49.638Z,578.00
2023-04-26T00:34:49.701Z,579.00
2023-04-26T00:35:49.733Z,576.00
2023-04-26T00:36:49.793Z,573.00
2023-04-26T00:37:49.857Z,570.00
2023-04-26T00:38:49.945Z,569.00
2023-04-26T00:39:49.907Z,571.00
2023-04-26T00:40:49.955Z,573.00
2023-04-26T00:41:49.994Z,569.00
2023-04-26T00:42:50.046Z,571.00
2023-04-26T00:43:50.130Z,568.00
2023-04-26T00:44:50.131Z,566.00
2023-04-26T00:45:50.266Z,568.00
2023-04-26T00:46:50.226Z,569.00
2023-04-26T00:47:50.340Z,568.00
2023-04-26T00:48:50.555Z,567.00
2023-04-26T00:49:50.384Z,566.00
2023-04-26T00:50:50.415Z,565.00
2023-04-26T00:51:50.472Z,567.00
2023-04-26T00:52:50.496Z,569.00
2023-04-26T00:53:50.570Z,570.00
2023-04-26T00:54:50.580Z,569.00
2023-04-26T00:55:50.700Z,569.00
2023-04-26T00:56:50.689Z,568.00
2023-04-26T00:57:50.747Z,570.00
2023-04-26T00:58:51.086Z,571.00
2023-04-26T00:59:50.873Z,569.00
2023-04-26T01:00:50.876Z,569.00
2023-04-26T01:01:50.918Z,571.00
2023-04-26T01:02:51.089Z,574.00
2023-04-26T01:03:51.206Z,575.00
2023-04-26T01:04:51.069Z,577.00
2023-04-26T01:05:51.091Z,575.00
2023-04-26T01:06:51.164Z,576.00
2023-04-26T01:07:51.181Z,574.00
2023-04-26T01:08:51.409Z,574.00
2023-04-26T01:09:51.258Z,574.00
2023-04-26T01:10:51.291Z,574.00
2023-04-26T01:11:51.357Z,574.00
2023-04-26T01:12:51.424Z,572.00
2023-04-26T01:13:51.474Z,576.00
2023-04-26T01:14:51.459Z,574.00
2023-04-26T01:15:51.505Z,573.00
2023-04-26T01:16:51.637Z,574.00
2023-04-26T01:17:51.711Z,574.00
2023-04-26T01:18:51.878Z,572.00
2023-04-26T01:19:51.702Z,572.00
2023-04-26T01:20:51.735Z,574.00
2023-04-26T01:21:51.802Z,573.00
2023-04-26T01:22:51.819Z,571.00
2023-04-26T01:23:51.890Z,569.00
2023-04-26T01:24:51.948Z,569.00
2023-04-26T01:25:51.988Z,569.00
2023-04-26T01:26:51.995Z,571.00
2023-04-26T01:27:52.061Z,571.00
2023-04-26T01:28:52.405Z,571.00
2023-04-26T01:29:52.164Z,569.00
2023-04-26T01:30:52.313Z,569.00
2023-04-26T01:31:52.250Z,571.00
2023-04-26T01:32:52.312Z,574.00
2023-04-26T01:33:52.383Z,573.00
2023-04-26T01:34:52.401Z,573.00
2023-04-26T01:35:52.427Z,571.00
2023-04-26T01:36:52.445Z,569.00
2023-04-26T01:37:52.496Z,567.00
2023-04-26T01:38:52.910Z,567.00
2023-04-26T01:39:52.598Z,567.00
2023-04-26T01:40:52.632Z,568.00
2023-04-26T01:41:52.675Z,567.00
2023-04-26T01:42:52.697Z,568.00
2023-04-26T01:43:52.767Z,566.00
2023-04-26T01:44:52.775Z,566.00
2023-04-26T01:45:52.844Z,567.00
2023-04-26T01:46:52.872Z,567.00
2023-04-26T01:47:52.909Z,564.00
2023-04-26T01:48:53.138Z,566.00
2023-04-26T01:49:53.030Z,566.00
2023-04-26T01:50:53.054Z,568.00
2023-04-26T01:51:53.076Z,568.00
2023-04-26T01:52:53.131Z,568.00
2023-04-26T01:53:53.159Z,568.00
2023-04-26T01:54:53.202Z,568.00
2023-04-26T01:55:53.247Z,568.00
2023-04-26T01:56:53.319Z,568.00
2023-04-26T01:57:53.339Z,567.00
2023-04-26T01:58:53.557Z,568.00
2023-04-26T01:59:53.435Z,567.00
2023-04-26T02:00:53.500Z,566.00
2023-04-26T02:01:53.553Z,568.00
2023-04-26T02:02:53.673Z,566.00
2023-04-26T02:03:53.674Z,567.00
2023-04-26T02:04:53.700Z,565.00
2023-04-26T02:05:53.821Z,564.00
2023-04-26T02:06:53.835Z,561.00
2023-04-26T02:07:53.854Z,558.00
2023-04-26T02:08:54.231Z,558.00
2023-04-26T02:09:53.919Z,558.00
2023-04-26T02:10:54.004Z,559.00
2023-04-26T02:11:54.050Z,561.00
2023-04-26T02:12:54.082Z,562.00
2023-04-26T02:13:54.156Z,561.00
2023-04-26T02:14:54.158Z,562.00
2023-04-26T02:15:54.274Z,564.00
2023-04-26T02:16:54.298Z,566.00
2023-04-26T02:17:54.349Z,567.00
2023-04-26T02:18:54.628Z,563.00
2023-04-26T02:19:54.463Z,563.00
2023-04-26T02:20:54.488Z,564.00
2023-04-26T02:21:54.558Z,565.00
2023-04-26T02:22:54.597Z,566.00
2023-04-26T02:23:54.694Z,567.00
2023-04-26T02:24:54.712Z,569.00
2023-04-26T02:25:54.783Z,568.00
2023-04-26T02:26:55.214Z,566.00
2023-04-26T02:27:54.883Z,566.00
2023-04-26T02:28:55.024Z,567.00
2023-04-26T02:29:55.015Z,573.00
2023-04-26T02:30:55.124Z,569.00
2023-04-26T02:31:55.186Z,570.00
2023-04-26T02:32:55.194Z,568.00
2023-04-26T02:33:55.218Z,568.00
2023-04-26T02:34:55.276Z,567.00
2023-04-26T02:35:55.347Z,564.00
2023-04-26T02:36:55.372Z,561.00
2023-04-26T02:37:55.449Z,561.00
2023-04-26T02:38:55.507Z,563.00
2023-04-26T02:39:55.591Z,564.00
2023-04-26T02:40:55.614Z,565.00
2023-04-26T02:41:55.688Z,568.00
2023-04-26T02:42:55.729Z,568.00
2023-04-26T02:43:55.779Z,568.00
2023-04-26T02:44:55.867Z,570.00
2023-04-26T02:45:55.914Z,571.00
2023-04-26T02:46:55.998Z,570.00
2023-04-26T02:47:56.123Z,569.00
2023-04-26T02:48:56.070Z,568.00
2023-04-26T02:49:56.182Z,567.00
2023-04-26T02:50:56.211Z,568.00
2023-04-26T02:51:56.249Z,567.00
2023-04-26T02:52:56.330Z,570.00
2023-04-26T02:53:56.365Z,569.00
2023-04-26T02:54:56.447Z,570.00
2023-04-26T02:55:56.518Z,569.00
2023-04-26T02:56:56.587Z,565.00
2023-04-26T02:57:56.653Z,564.00
2023-04-26T02:58:56.669Z,567.00
2023-04-26T02:59:56.757Z,567.00
2023-04-26T03:00:58.313Z,564.00
2023-04-26T03:01:56.922Z,565.00
2023-04-26T03:02:56.988Z,564.00
2023-04-26T03:03:56.881Z,562.00
2023-04-26T03:04:56.786Z,562.00
2023-04-26T03:05:56.848Z,562.00
2023-04-26T03:06:56.772Z,563.00
2023-04-26T03:07:56.749Z,564.00
2023-04-26T03:08:56.788Z,566.00
2023-04-26T03:09:56.724Z,565.00
2023-04-26T03:10:56.747Z,566.00
2023-04-26T03:11:56.741Z,567.00
2023-04-26T03:12:56.701Z,567.00
2023-04-26T03:13:56.733Z,560.00
2023-04-26T03:14:56.699Z,559.00
2023-04-26T03:15:56.688Z,558.00
2023-04-26T03:16:56.757Z,559.00
2023-04-26T03:17:56.686Z,562.00
2023-04-26T03:18:56.689Z,567.00
2023-04-26T03:19:56.708Z,566.00
2023-04-26T03:20:56.634Z,564.00
2023-04-26T03:21:56.649Z,567.00
2023-04-26T03:22:56.641Z,567.00
2023-04-26T03:23:56.622Z,567.00
2023-04-26T03:24:56.631Z,564.00
2023-04-26T03:25:56.613Z,567.00
2023-04-26T03:26:56.595Z,566.00
2023-04-26T03:27:56.596Z,568.00
2023-04-26T03:28:56.618Z,567.00
2023-04-26T03:29:56.717Z,567.00
2023-04-26T03:30:56.789Z,566.00
2023-04-26T03:31:56.858Z,565.00
2023-04-26T03:32:56.946Z,564.00
2023-04-26T03:33:56.902Z,564.00
2023-04-26T03:34:56.991Z,563.00
2023-04-26T03:35:57.035Z,563.00
2023-04-26T03:36:57.104Z,566.00
2023-04-26T03:37:58.700Z,565.00
2023-04-26T03:38:57.188Z,563.00
2023-04-26T03:39:57.255Z,563.00
2023-04-26T03:40:57.355Z,565.00
2023-04-26T03:41:57.373Z,565.00
2023-04-26T03:42:57.425Z,564.00
2023-04-26T03:43:57.538Z,561.00
2023-04-26T03:44:57.551Z,559.00
2023-04-26T03:45:57.665Z,559.00
2023-04-26T03:46:57.668Z,559.00
2023-04-26T03:47:57.787Z,559.00
2023-04-26T03:48:57.809Z,561.00
2023-04-26T03:49:57.842Z,560.00
2023-04-26T03:50:57.927Z,560.00
2023-04-26T03:51:57.981Z,561.00
2023-04-26T03:52:58.020Z,561.00
2023-04-26T03:53:58.085Z,561.00
2023-04-26T03:54:58.139Z,561.00
2023-04-26T03:55:58.209Z,562.00
2023-04-26T03:56:58.236Z,561.00
2023-04-26T03:57:58.304Z,562.00
2023-04-26T03:58:58.429Z,560.00
2023-04-26T03:59:58.432Z,560.00
2023-04-26T04:00:58.441Z,558.00
2023-04-26T04:01:58.516Z,558.00
2023-04-26T04:02:58.739Z,556.00
2023-04-26T04:03:59.121Z,557.00
2023-04-26T04:04:58.850Z,560.00
2023-04-26T04:05:58.691Z,561.00
2023-04-26T04:06:58.794Z,560.00
2023-04-26T04:07:58.821Z,562.00
2023-04-26T04:08:58.881Z,564.00
2023-04-26T04:09:58.939Z,564.00
2023-04-26T04:10:58.976Z,563.00
2023-04-26T04:11:59.025Z,564.00
2023-04-26T04:12:59.083Z,564.00
2023-04-26T04:13:59.162Z,563.00
2023-04-26T04:14:59.148Z,566.00
2023-04-26T04:15:59.217Z,566.00
2023-04-26T04:16:59.272Z,567.00
2023-04-26T04:17:59.327Z,567.00
2023-04-26T04:18:59.357Z,570.00
2023-04-26T04:19:59.420Z,569.00
2023-04-26T04:20:59.448Z,570.00
2023-04-26T04:21:59.514Z,565.00
2023-04-26T04:22:59.564Z,567.00
2023-04-26T04:23:59.592Z,568.00
2023-04-26T04:24:59.663Z,570.00
2023-04-26T04:25:59.741Z,570.00
2023-04-26T04:26:59.759Z,571.00
2023-04-26T04:27:59.809Z,570.00
2023-04-26T04:28:59.853Z,571.00
2023-04-26T04:29:59.884Z,571.00
2023-04-26T04:30:59.997Z,571.00
2023-04-26T04:32:00.006Z,570.00
2023-04-26T04:33:00.096Z,568.00
2023-04-26T04:34:00.123Z,566.00
2023-04-26T04:35:00.161Z,565.00
2023-04-26T04:36:00.203Z,565.00
2023-04-26T04:37:00.200Z,568.00
2023-04-26T04:38:00.255Z,569.00
2023-04-26T04:39:00.288Z,570.00
2023-04-26T04:40:00.290Z,568.00
2023-04-26T04:41:00.362Z,565.00
2023-04-26T04:42:00.394Z,565.00
2023-04-26T04:43:00.398Z,565.00
2023-04-26T04:44:00.463Z,564.00
2023-04-26T04:45:00.499Z,563.00
2023-04-26T04:46:00.581Z,564.00
2023-04-26T04:47:00.688Z,564.00
2023-04-26T04:48:00.618Z,565.00
2023-04-26T04:49:00.606Z,565.00
2023-04-26T04:50:00.684Z,563.00
2023-04-26T04:51:00.659Z,562.00
2023-04-26T04:52:00.700Z,560.00
2023-04-26T04:53:00.752Z,562.00
2023-04-26T04:54:00.764Z,562.00
2023-04-26T04:55:00.804Z,562.00
2023-04-26T04:56:00.836Z,565.00
2023-04-26T04:57:00.885Z,566.00
2023-04-26T04:58:00.898Z,565.00
2023-04-26T04:59:00.919Z,570.00
2023-04-26T05:00:00.984Z,566.00
2023-04-26T05:01:01.022Z,565.00
2023-04-26T05:02:01.090Z,564.00
2023-04-26T05:03:01.314Z,565.00
2023-04-26T05:04:01.274Z,566.00
2023-04-26T05:05:01.251Z,565.00
2023-04-26T05:06:01.248Z,564.00
2023-04-26T05:07:01.266Z,564.00
2023-04-26T05:08:01.346Z,563.00
2023-04-26T05:09:01.374Z,561.00
2023-04-26T05:10:01.438Z,561.00
2023-04-26T05:11:01.457Z,559.00
2023-04-26T05:12:01.472Z,559.00
2023-04-26T05:13:01.537Z,560.00
2023-04-26T05:14:01.562Z,563.00
2023-04-26T05:15:01.611Z,565.00
2023-04-26T05:16:01.660Z,562.00
2023-04-26T05:17:01.731Z,560.00
2023-04-26T05:18:01.753Z,559.00
2023-04-26T05:19:01.766Z,556.00
2023-04-26T05:20:01.817Z,558.00
2023-04-26T05:21:01.853Z,558.00
2023-04-26T05:22:01.862Z,555.00
2023-04-26T05:23:01.969Z,556.00
2023-04-26T05:24:01.902Z,556.00
2023-04-26T05:25:01.902Z,552.00
2023-04-26T05:26:01.933Z,551.00
2023-04-26T05:27:02.099Z,552.00
2023-04-26T05:28:01.990Z,549.00
2023-04-26T05:29:02.081Z,547.00
2023-04-26T05:30:02.083Z,547.00
2023-04-26T05:31:02.223Z,549.00
2023-04-26T05:32:02.267Z,548.00
2023-04-26T05:33:02.278Z,548.00
2023-04-26T05:34:02.340Z,548.00
2023-04-26T05:35:02.402Z,553.00
2023-04-26T05:36:03.153Z,622.00
2023-04-26T05:37:02.493Z,633.00
2023-04-26T05:38:02.529Z,716.00
2023-04-26T05:39:02.659Z,723.00
2023-04-26T05:40:02.618Z,764.00
2023-04-26T05:41:02.635Z,769.00
2023-04-26T05:42:02.646Z,774.00
2023-04-26T05:43:02.749Z,842.00
2023-04-26T05:44:02.686Z,881.00
2023-04-26T05:45:03.274Z,889.00
2023-04-26T05:46:02.763Z,897.00
2023-04-26T05:47:02.727Z,1011.00
2023-04-26T05:48:02.723Z,998.00
2023-04-26T05:49:02.665Z,1037.00
2023-04-26T05:50:03.247Z,1025.00
2023-04-26T05:51:02.753Z,1027.00
2023-04-26T05:52:02.939Z,1046.00
2023-04-26T05:53:03.009Z,1084.00
2023-04-26T05:54:02.981Z,1116.00
2023-04-26T05:55:03.045Z,1136.00
2023-04-26T05:56:03.042Z,1143.00
2023-04-26T05:57:03.126Z,1163.00
2023-04-26T05:58:03.143Z,1197.00
2023-04-26T05:59:03.211Z,1214.00
2023-04-26T06:00:03.379Z,1267.00
2023-04-26T06:01:03.255Z,1282.00
2023-04-26T06:02:03.346Z,1288.00
2023-04-26T06:03:03.520Z,1312.00
2023-04-26T06:04:03.866Z,1338.00
2023-04-26T06:05:03.553Z,1358.00
2023-04-26T06:06:03.436Z,1390.00
2023-04-26T06:07:03.421Z,1422.00
2023-04-26T06:08:03.430Z,1452.00
2023-04-26T06:09:03.448Z,1464.00
2023-04-26T06:10:03.466Z,1482.00
2023-04-26T06:11:03.467Z,1513.00
2023-04-26T06:12:03.451Z,1561.00
2023-04-26T06:13:03.488Z,1590.00
2023-04-26T06:14:03.464Z,1608.00
2023-04-26T06:15:03.541Z,1626.00
2023-04-26T06:16:03.465Z,1641.00
2023-04-26T06:17:03.539Z,1684.00
2023-04-26T06:18:03.574Z,1701.00
2023-04-26T06:19:03.475Z,1707.00
2023-04-26T06:20:03.488Z,1743.00
2023-04-26T06:21:03.510Z,1798.00
2023-04-26T06:22:03.536Z,1804.00
2023-04-26T06:23:03.547Z,1815.00
2023-04-26T06:24:03.640Z,1855.00
2023-04-26T06:25:03.588Z,1883.00
2023-04-26T06:26:03.610Z,1900.00
2023-04-26T06:27:03.621Z,1913.00
2023-04-26T06:28:03.614Z,1929.00
2023-04-26T06:29:03.612Z,1950.00
2023-04-26T06:30:03.677Z,1980.00
2023-04-26T06:31:03.663Z,2018.00
2023-04-26T06:32:03.670Z,2019.00
2023-04-26T06:33:03.778Z,2021.00
2023-04-26T06:34:03.678Z,1999.00
2023-04-26T06:35:03.708Z,1906.00
2023-04-26T06:36:03.736Z,1821.00
2023-04-26T06:37:03.752Z,1501.00
2023-04-26T06:38:03.791Z,1303.00
2023-04-26T06:39:03.819Z,1239.00
2023-04-26T06:40:04.277Z,1253.00
2023-04-26T06:41:03.788Z,1118.00
2023-04-26T06:42:03.818Z,1026.00
2023-04-26T06:43:03.834Z,1064.00
2023-04-26T06:44:03.785Z,1054.00
2023-04-26T06:45:03.827Z,1051.00
2023-04-26T06:46:03.906Z,1052.00
2023-04-26T06:47:03.913Z,1061.00
2023-04-26T06:48:04.043Z,1071.00
2023-04-26T06:49:03.888Z,1074.00
2023-04-26T06:50:03.905Z,1073.00
2023-04-26T06:51:03.920Z,1067.00
2023-04-26T06:52:03.976Z,1067.00
2023-04-26T06:53:04.014Z,1069.00
2023-04-26T06:54:03.980Z,1069.00
2023-04-26T06:55:04.200Z,1066.00
2023-04-26T06:56:03.972Z,1068.00
2023-04-26T06:57:03.926Z,1062.00
2023-04-26T06:58:04.004Z,1062.00
2023-04-26T06:59:03.965Z,1061.00
2023-04-26T07:00:04.016Z,1061.00
2023-04-26T07:01:03.982Z,1061.00
2023-04-26T07:02:03.977Z,1064.00
2023-04-26T07:03:04.126Z,1064.00
2023-04-26T07:04:04.188Z,1061.00
2023-04-26T07:05:04.128Z,1058.00
2023-04-26T07:06:03.999Z,1062.00
2023-04-26T07:07:04.066Z,1067.00
2023-04-26T07:08:04.048Z,1074.00
2023-04-26T07:09:04.049Z,1074.00
2023-04-26T07:10:04.089Z,1068.00
2023-04-26T07:11:04.053Z,1060.00
2023-04-26T07:12:04.067Z,1059.00
2023-04-26T07:13:04.074Z,1064.00
2023-04-26T07:14:04.100Z,1088.00
2023-04-26T07:15:04.122Z,1134.00
2023-04-26T07:16:04.176Z,1146.00
2023-04-26T07:17:04.168Z,1152.00
2023-04-26T07:18:04.227Z,1154.00
2023-04-26T07:19:04.186Z,1154.00
2023-04-26T07:20:04.220Z,1148.00
2023-04-26T07:21:04.232Z,1144.00
2023-04-26T07:22:04.233Z,1139.00
2023-04-26T07:23:04.274Z,1135.00
2023-04-26T07:24:04.457Z,1128.00
2023-04-26T07:25:04.344Z,1121.00
2023-04-26T07:26:04.334Z,1123.00
2023-04-26T07:27:04.332Z,1123.00
2023-04-26T07:28:04.367Z,1122.00
2023-04-26T07:29:04.322Z,1123.00
2023-04-26T07:30:04.335Z,1129.00
2023-04-26T07:31:06.023Z,1131.00
2023-04-26T07:32:04.367Z,1137.00
2023-04-26T07:33:04.471Z,1266.00
2023-04-26T07:34:04.331Z,1282.00
2023-04-26T07:35:04.339Z,1142.00
2023-04-26T07:36:04.704Z,1112.00
2023-04-26T07:37:04.344Z,1122.00
2023-04-26T07:38:04.300Z,1111.00
2023-04-26T07:39:04.310Z,1116.00
2023-04-26T07:40:04.299Z,1100.00
2023-04-26T07:41:04.305Z,1084.00
2023-04-26T07:42:04.275Z,1066.00
2023-04-26T07:43:04.260Z,1030.00
2023-04-26T07:44:04.249Z,1028.00
2023-04-26T07:45:04.236Z,1037.00
2023-04-26T07:46:04.278Z,1060.00
2023-04-26T07:47:04.264Z,1081.00
2023-04-26T07:48:04.354Z,1072.00
2023-04-26T07:49:04.240Z,1063.00
2023-04-26T07:50:04.233Z,1053.00
2023-04-26T07:51:04.305Z,984.00
2023-04-26T07:52:04.215Z,973.00
2023-04-26T07:53:04.213Z,980.00
2023-04-26T07:54:04.223Z,985.00
2023-04-26T07:55:04.208Z,936.00
2023-04-26T07:56:04.245Z,938.00
2023-04-26T07:57:04.340Z,938.00
2023-04-26T07:58:04.170Z,948.00
2023-04-26T07:59:04.172Z,942.00
2023-04-26T08:00:04.136Z,941.00
2023-04-26T08:01:04.191Z,946.00
2023-04-26T08:02:04.171Z,948.00
2023-04-26T08:03:04.212Z,953.00
2023-04-26T08:04:04.333Z,959.00
2023-04-26T08:05:04.232Z,965.00
2023-04-26T08:06:04.267Z,985.00
2023-04-26T08:07:04.110Z,1007.00
2023-04-26T08:08:04.093Z,1010.00
2023-04-26T08:09:04.095Z,1002.00
2023-04-26T08:10:04.122Z,999.00
2023-04-26T08:11:04.794Z,999.00
2023-04-26T08:12:04.128Z,1008.00
2023-04-26T08:13:04.741Z,1009.00
2023-04-26T08:14:04.090Z,1011.00
2023-04-26T08:15:04.052Z,1012.00
2023-04-26T08:16:04.033Z,1018.00
2023-04-26T08:17:04.080Z,1027.00
2023-04-26T08:18:04.880Z,1034.00
2023-04-26T08:19:04.158Z,1038.00
2023-04-26T08:20:04.040Z,1055.00
2023-04-26T08:21:04.033Z,1095.00
2023-04-26T08:22:03.989Z,1094.00
2023-04-26T08:23:03.993Z,1114.00
2023-04-26T08:24:03.985Z,1151.00
2023-04-26T08:25:04.059Z,1153.00
2023-04-26T08:26:04.060Z,1140.00
2023-04-26T08:27:04.045Z,1127.00
2023-04-26T08:28:03.960Z,1121.00
2023-04-26T08:29:03.976Z,1119.00
2023-04-26T08:30:03.986Z,1114.00
2023-04-26T08:31:04.045Z,1110.00
2023-04-26T08:32:03.950Z,1104.00
2023-04-26T08:33:04.040Z,1097.00
2023-04-26T08:34:03.917Z,1088.00
2023-04-26T08:35:03.910Z,1073.00
2023-04-26T08:36:03.917Z,1064.00
2023-04-26T08:37:03.903Z,1052.00
2023-04-26T08:38:03.951Z,1041.00
2023-04-26T08:39:05.714Z,1033.00
2023-04-26T08:40:03.877Z,1021.00
2023-04-26T08:41:04.252Z,1002.00
2023-04-26T08:42:03.849Z,1029.00
2023-04-26T08:43:04.738Z,1077.00
2023-04-26T08:44:03.895Z,1092.00
2023-04-26T08:45:03.874Z,1181.00
2023-04-26T08:46:03.961Z,1198.00
2023-04-26T08:47:03.968Z,1216.00
2023-04-26T08:48:04.584Z,1228.00
2023-04-26T08:49:03.817Z,1238.00
2023-04-26T08:50:03.886Z,1266.00
2023-04-26T08:51:04.265Z,1283.00
2023-04-26T08:52:04.813Z,1305.00
2023-04-26T08:53:03.913Z,1339.00
2023-04-26T08:54:04.849Z,1347.00
2023-04-26T08:55:03.851Z,1383.00
2023-04-26T08:56:03.792Z,1369.00
2023-04-26T08:57:03.809Z,1370.00
2023-04-26T08:58:03.863Z,1371.00
2023-04-26T08:59:03.920Z,1367.00
2023-04-26T09:00:03.995Z,1369.00
2023-04-26T09:01:04.276Z,1363.00
2023-04-26T09:02:04.104Z,1357.00
2023-04-26T09:03:04.224Z,1349.00
2023-04-26T09:04:04.252Z,1337.00
2023-04-26T09:05:04.330Z,1200.00
2023-04-26T09:06:04.505Z,1170.00
2023-04-26T09:07:04.261Z,1122.00
2023-04-26T09:08:04.324Z,1102.00
2023-04-26T09:09:04.411Z,977.00
2023-04-26T09:10:04.433Z,934.00
2023-04-26T09:11:04.762Z,923.00
2023-04-26T09:12:04.500Z,933.00
2023-04-26T09:13:05.259Z,937.00
2023-04-26T09:14:04.528Z,877.00
2023-04-26T09:15:04.521Z,893.00
2023-04-26T09:16:05.254Z,904.00
2023-04-26T09:17:04.550Z,905.00
2023-04-26T09:18:04.633Z,908.00
2023-04-26T09:19:04.550Z,912.00
2023-04-26T09:20:07.209Z,910.00
2023-04-26T09:21:04.609Z,905.00
2023-04-26T09:22:04.551Z,899.00
2023-04-26T09:23:04.583Z,896.00
2023-04-26T09:24:04.629Z,826.00
2023-04-26T09:25:04.555Z,826.00
2023-04-26T09:26:04.776Z,840.00
2023-04-26T09:27:04.595Z,845.00
2023-04-26T09:28:04.573Z,853.00
2023-04-26T09:29:04.534Z,861.00
2023-04-26T09:30:04.537Z,866.00
2023-04-26T09:31:04.777Z,866.00
2023-04-26T09:32:04.516Z,933.00
2023-04-26T09:33:04.585Z,948.00
2023-04-26T09:34:04.535Z,960.00
2023-04-26T09:35:04.503Z,965.00
2023-04-26T09:36:04.453Z,969.00
2023-04-26T09:37:04.567Z,961.00
2023-04-26T09:38:09.695Z,963.00
2023-04-26T09:39:05.473Z,873.00
2023-04-26T09:40:04.528Z,892.00
2023-04-26T09:41:04.764Z,946.00
2023-04-26T09:42:04.484Z,976.00
2023-04-26T09:43:04.498Z,975.00
2023-04-26T09:44:04.467Z,961.00
2023-04-26T09:45:04.423Z,954.00
2023-04-26T09:46:04.428Z,945.00
2023-04-26T09:47:04.556Z,929.00
2023-04-26T09:48:04.570Z,926.00
2023-04-26T09:49:04.392Z,840.00
2023-04-26T09:50:04.505Z,865.00
2023-04-26T09:51:04.762Z,866.00
2023-04-26T09:52:04.491Z,865.00
2023-04-26T09:53:04.371Z,877.00
2023-04-26T09:54:04.402Z,827.00
2023-04-26T09:55:04.389Z,747.00
2023-04-26T09:56:04.345Z,835.00
2023-04-26T09:57:05.268Z,850.00
2023-04-26T09:58:04.343Z,847.00
2023-04-26T09:59:04.337Z,858.00
2023-04-26T10:00:04.316Z,857.00
2023-04-26T10:01:04.347Z,862.00
2023-04-26T10:02:04.334Z,874.00
2023-04-26T10:03:04.341Z,875.00
2023-04-26T10:04:04.455Z,878.00
2023-04-26T10:05:04.513Z,878.00
2023-04-26T10:06:04.302Z,884.00
2023-04-26T10:07:04.302Z,890.00
2023-04-26T10:08:04.288Z,890.00
2023-04-26T10:09:04.243Z,884.00
2023-04-26T10:10:04.258Z,878.00
2023-04-26T10:11:04.226Z,834.00
2023-04-26T10:12:04.214Z,836.00
2023-04-26T10:13:04.251Z,849.00
2023-04-26T10:14:04.241Z,883.00
2023-04-26T10:15:04.203Z,889.00
2023-04-26T10:16:04.212Z,884.00
2023-04-26T10:17:04.299Z,879.00
2023-04-26T10:18:04.183Z,881.00
2023-04-26T10:19:04.178Z,884.00
2023-04-26T10:20:04.246Z,884.00
2023-04-26T10:21:04.164Z,792.00
2023-04-26T10:22:04.181Z,815.00
2023-04-26T10:23:04.154Z,833.00
2023-04-26T10:24:04.203Z,860.00
2023-04-26T10:25:04.141Z,904.00
2023-04-26T10:26:04.163Z,904.00
2023-04-26T10:27:04.169Z,857.00
2023-04-26T10:28:04.142Z,853.00
2023-04-26T10:29:04.337Z,838.00
2023-04-26T10:30:04.242Z,826.00
2023-04-26T10:31:04.289Z,815.00
2023-04-26T10:32:04.182Z,809.00
2023-04-26T10:33:04.210Z,804.00
2023-04-26T10:34:04.142Z,800.00
2023-04-26T10:35:04.165Z,802.00
2023-04-26T10:36:04.332Z,804.00
2023-04-26T10:37:04.151Z,804.00
2023-04-26T10:38:04.182Z,806.00
2023-04-26T10:39:04.174Z,807.00
2023-04-26T10:40:04.162Z,805.00
2023-04-26T10:41:04.284Z,807.00
2023-04-26T10:42:04.178Z,808.00
2023-04-26T10:43:04.212Z,807.00
2023-04-26T10:44:04.227Z,802.00
2023-04-26T10:45:04.261Z,805.00
2023-04-26T10:46:04.374Z,806.00
2023-04-26T10:47:04.345Z,805.00
2023-04-26T10:48:04.473Z,801.00
2023-04-26T10:49:04.394Z,798.00
2023-04-26T10:50:05.543Z,794.00
2023-04-26T10:51:04.504Z,795.00
2023-04-26T10:52:04.507Z,796.00
2023-04-26T10:53:04.586Z,797.00
2023-04-26T10:54:04.598Z,795.00
2023-04-26T10:55:04.646Z,796.00
2023-04-26T10:56:04.660Z,794.00
2023-04-26T10:57:04.729Z,794.00
2023-04-26T10:58:04.746Z,792.00
2023-04-26T10:59:08.469Z,791.00
2023-04-26T11:00:05.803Z,792.00
2023-04-26T11:01:04.863Z,792.00
2023-04-26T11:02:04.764Z,790.00
2023-04-26T11:03:04.921Z,790.00
2023-04-26T11:04:04.915Z,790.00
2023-04-26T11:05:04.831Z,793.00
2023-04-26T11:06:04.742Z,793.00
2023-04-26T11:07:04.734Z,792.00
2023-04-26T11:08:04.853Z,791.00
2023-04-26T11:09:04.811Z,789.00
2023-04-26T11:10:04.865Z,792.00
2023-04-26T11:11:04.935Z,793.00
2023-04-26T11:12:04.973Z,791.00
2023-04-26T11:13:05.039Z,792.00
2023-04-26T11:14:05.086Z,790.00
2023-04-26T11:15:05.151Z,792.00
2023-04-26T11:16:05.332Z,791.00
2023-04-26T11:17:05.280Z,789.00
2023-04-26T11:18:05.390Z,790.00
2023-04-26T11:19:05.460Z,786.00
2023-04-26T11:20:05.468Z,785.00
2023-04-26T11:21:05.924Z,783.00
2023-04-26T11:22:05.624Z,783.00
2023-04-26T11:23:05.623Z,783.00
2023-04-26T11:24:05.804Z,782.00
2023-04-26T11:25:05.764Z,783.00
2023-04-26T11:26:05.925Z,782.00
2023-04-26T11:27:05.898Z,781.00
2023-04-26T11:28:05.921Z,780.00
2023-04-26T11:29:06.013Z,783.00
2023-04-26T11:30:06.068Z,785.00
2023-04-26T11:31:06.151Z,784.00
2023-04-26T11:32:06.205Z,783.00
2023-04-26T11:33:06.342Z,785.00
2023-04-26T11:34:06.353Z,785.00
2023-04-26T11:35:06.381Z,787.00
2023-04-26T11:36:06.836Z,789.00
2023-04-26T11:37:06.496Z,792.00
2023-04-26T11:38:06.561Z,792.00
2023-04-26T11:39:06.637Z,794.00
2023-04-26T11:40:06.703Z,795.00
2023-04-26T11:41:06.821Z,794.00
2023-04-26T11:42:06.853Z,795.00
2023-04-26T11:43:06.865Z,795.00
2023-04-26T11:44:06.995Z,792.00
2023-04-26T11:45:07.005Z,793.00
2023-04-26T11:46:07.197Z,790.00
2023-04-26T11:47:07.170Z,791.00
2023-04-26T11:48:07.210Z,792.00
2023-04-26T11:49:07.249Z,791.00
2023-04-26T11:50:07.295Z,793.00
2023-04-26T11:51:07.803Z,793.00
2023-04-26T11:52:07.466Z,794.00
2023-04-26T11:53:07.534Z,793.00
2023-04-26T11:54:07.580Z,795.00
2023-04-26T11:55:07.686Z,796.00
2023-04-26T11:56:07.777Z,797.00
2023-04-26T11:57:07.741Z,796.00
2023-04-26T11:58:07.814Z,796.00
2023-04-26T11:59:07.895Z,793.00
2023-04-26T12:00:07.947Z,790.00
2023-04-26T12:01:08.027Z,788.00
2023-04-26T12:02:08.192Z,787.00
2023-04-26T12:03:08.398Z,787.00
2023-04-26T12:04:08.320Z,786.00
2023-04-26T12:05:08.326Z,787.00
2023-04-26T12:06:08.396Z,787.00
2023-04-26T12:07:08.408Z,786.00
2023-04-26T12:08:08.452Z,783.00
2023-04-26T12:09:08.510Z,784.00
2023-04-26T12:10:08.548Z,784.00
2023-04-26T12:11:08.661Z,785.00
2023-04-26T12:12:08.745Z,784.00
2023-04-26T12:13:08.762Z,782.00
2023-04-26T12:14:08.823Z,782.00
2023-04-26T12:15:08.860Z,780.00
2023-04-26T12:16:18.556Z,776.00
2023-04-26T12:17:09.921Z,777.00
2023-04-26T12:18:09.052Z,777.00
2023-04-26T12:19:08.948Z,778.00
2023-04-26T12:20:08.936Z,780.00
2023-04-26T12:21:09.873Z,776.00
2023-04-26T12:22:08.898Z,773.00
2023-04-26T12:23:08.878Z,774.00